• Join FlightAware (Why Join?)
  • Login
  • US Flag 
09:36PM EDT


 

Airport Tracker/Info


-or-


 

Live Flight TrackerFlight Track Log ✈ SVA1485 ✈ 19-Sep-2013 ✈ OEPA / AQI - OEJN / JED

Flight Track Log - Related Links

Times and Time Zones

All times are in EDT time to prevent confusion due to time zone crossing. See the SVA1485 flight status page for this flight to view local times or setup timezone preferences in your user account.

Time Position Orientation Groundspeed Altitude Reporting Facility
EDT Latitude Longitude Course Direction KTS MPH feet Rate Location/Type
11:43AM 26.3745 43.9541 225° Southwest  Level Estimated
11:44AM 26.3012 43.8751 224° Southwest  Level Estimated
11:45AM 26.2279 43.7963 224° Southwest  Level Estimated
11:46AM 26.1546 43.7175 224° Southwest  Level Estimated
11:47AM 26.0812 43.6388 224° Southwest  Level Estimated
11:48AM 26.0078 43.5603 224° Southwest  Level Estimated
11:49AM 25.9343 43.4818 224° Southwest  Level Estimated
11:50AM 25.8608 43.4035 224° Southwest  Level Estimated
11:51AM 25.7873 43.3252 224° Southwest  Level Estimated
11:52AM 25.7137 43.2470 224° Southwest  Level Estimated
11:53AM 25.6401 43.1689 224° Southwest  Level Estimated
11:54AM 25.5664 43.0910 224° Southwest  Level Estimated
11:55AM 25.4927 43.0131 224° Southwest  Level Estimated
11:56AM 25.4189 42.9353 224° Southwest  Level Estimated
11:57AM 25.3451 42.8576 224° Southwest  Level Estimated
11:58AM 25.2713 42.7800 224° Southwest  Level Estimated
11:59AM 25.1974 42.7025 224° Southwest  Level Estimated
12:00PM 25.1235 42.6251 223° Southwest  Level Estimated
12:01PM 25.0495 42.5478 223° Southwest  Level Estimated
12:02PM 24.9755 42.4706 223° Southwest  Level Estimated
12:03PM 24.9015 42.3934 223° Southwest  Level Estimated
12:04PM 24.8274 42.3164 223° Southwest  Level Estimated
12:05PM 24.7533 42.2395 223° Southwest  Level Estimated
12:06PM 24.6791 42.1626 223° Southwest  Level Estimated
12:07PM 24.6049 42.0858 223° Southwest  Level Estimated
12:08PM 24.5307 42.0092 223° Southwest  Level Estimated
12:09PM 24.4564 41.9326 223° Southwest  Level Estimated
12:10PM 24.3821 41.8561 223° Southwest  Level Estimated
12:11PM 24.3078 41.7797 223° Southwest  Level Estimated
12:12PM 24.2334 41.7034 223° Southwest  Level Estimated
12:13PM 24.1590 41.6272 223° Southwest  Level Estimated
12:14PM 24.0845 41.5510 223° Southwest  Level Estimated
12:15PM 24.0100 41.4750 223° Southwest  Level Estimated
12:16PM 23.9354 41.3991 223° Southwest  Level Estimated
12:17PM 23.8609 41.3232 223° Southwest  Level Estimated
12:18PM 23.7863 41.2474 223° Southwest  Level Estimated
12:19PM 23.7116 41.1717 223° Southwest  Level Estimated
12:20PM 23.6369 41.0961 223° Southwest  Level Estimated
12:21PM 23.5622 41.0206 223° Southwest  Level Estimated
12:22PM 23.4874 40.9452 223° Southwest  Level Estimated
12:23PM 23.4126 40.8698 223° Southwest  Level Estimated
12:24PM 23.3378 40.7946 223° Southwest  Level Estimated
12:25PM 23.2629 40.7194 223° Southwest  Level Estimated
12:26PM 23.1880 40.6443 223° Southwest  Level Estimated
12:27PM 23.1131 40.5693 223° Southwest  Level Estimated
12:28PM 23.0381 40.4943 223° Southwest  Level Estimated
12:29PM 22.9631 40.4195 223° Southwest  Level Estimated
12:30PM 22.8881 40.3447 223° Southwest  Level Estimated
12:31PM 22.8130 40.2701 223° Southwest  Level Estimated
12:32PM 22.7379 40.1955 222° Southwest  Level Estimated
12:33PM 22.6627 40.1210 222° Southwest  Level Estimated
12:34PM 22.5875 40.0465 222° Southwest  Level Estimated
12:35PM 22.5123 39.9722 222° Southwest  Level Estimated
12:36PM 22.4371 39.8979 222° Southwest  Level Estimated
12:37PM 22.3618 39.8237 222° Southwest  Level Estimated
12:38PM 22.2865 39.7496 222° Southwest  Level Estimated
12:39PM 22.2111 39.6756 222° Southwest  Level Estimated
12:40PM 22.1357 39.6016 222° Southwest  Level Estimated
12:41PM 22.0603 39.5278 222° Southwest  Level Estimated
12:42PM 21.9849 39.4540 222° Southwest  Level Estimated
12:43PM 21.9094 39.3803 222° Southwest  Level Estimated
12:44PM 21.8339 39.3066 222° Southwest  Level Estimated
12:45PM 21.7583 39.2331 222° Southwest  Level Estimated
12:46PM 21.6827 39.1596 222° Southwest  Level Estimated
12:47PM 21.6796 39.1565 222° Southwest  Level Estimated
12:48PM 21.6796 39.1565 317° Northwest  Level Estimated
12:49PM 21.6796 39.1565 317° Northwest  Level Estimated
12:50PM 21.6796 39.1565 317° Northwest  Level Estimated
12:51PM 21.6796 39.1565 317° Northwest  Level Estimated
12:52PM 21.6796 39.1565 317° Northwest  Level Estimated
12:53PM 21.6796 39.1565 317° Northwest  Level Estimated
12:54PM 21.6796 39.1565 317° Northwest  Level Estimated
12:55PM 21.6796 39.1565 317° Northwest  Level Estimated
12:56PM 21.6796 39.1565 317° Northwest  Level Estimated
12:57PM 21.6796 39.1565 317° Northwest  Level Estimated
12:58PM 21.6796 39.1565 317° Northwest  Level Estimated
12:59PM 21.6796 39.1565 317° Northwest  Level Estimated
01:00PM 21.6796 39.1565 317° Northwest  Level Estimated
01:01PM 21.6796 39.1565 317° Northwest  Level Estimated
01:02PM 21.6796 39.1565 317° Northwest  Level Estimated